createdAt,value
2019-04-20T00:00:52.663Z,11.90
2019-04-20T00:02:55.512Z,11.80
2019-04-20T00:04:59.094Z,11.80
2019-04-20T00:07:04.012Z,11.80
2019-04-20T00:09:14.025Z,11.80
2019-04-20T00:11:24.866Z,11.60
2019-04-20T00:13:29.060Z,11.60
2019-04-20T00:15:25.985Z,11.60
2019-04-20T00:17:30.660Z,11.50
2019-04-20T00:19:40.735Z,11.50
2019-04-20T00:21:46.962Z,11.50
2019-04-20T00:23:48.616Z,11.50
2019-04-20T00:26:19.429Z,11.40
2019-04-20T00:28:31.937Z,11.40
2019-04-20T00:30:38.903Z,11.40
2019-04-20T00:32:43.789Z,11.30
2019-04-20T00:34:37.242Z,11.20
2019-04-20T00:36:39.067Z,11.20
2019-04-20T00:38:51.004Z,11.20
2019-04-20T00:40:49.698Z,11.20
2019-04-20T00:42:57.939Z,11.10
2019-04-20T00:45:05.627Z,11.00
2019-04-20T00:47:17.870Z,11.00
2019-04-20T00:49:25.354Z,11.00
2019-04-20T00:51:32.689Z,10.90
2019-04-20T00:53:30.292Z,10.90
2019-04-20T00:55:27.301Z,10.90
2019-04-20T00:57:41.824Z,10.80
2019-04-20T00:59:59.140Z,10.80
2019-04-20T01:01:58.366Z,10.70
2019-04-20T01:04:06.705Z,10.70
2019-04-20T01:06:22.246Z,10.60
2019-04-20T01:08:14.871Z,10.60
2019-04-20T01:10:21.617Z,10.60
2019-04-20T01:12:28.592Z,10.60
2019-04-20T01:14:39.736Z,10.60
2019-04-20T01:16:43.982Z,10.50
2019-04-20T01:18:43.780Z,10.50
2019-04-20T01:20:47.406Z,10.50
2019-04-20T01:22:59.487Z,10.50
2019-04-20T01:25:09.735Z,10.50
2019-04-20T01:27:23.705Z,10.50
2019-04-20T01:29:27.555Z,10.40
2019-04-20T01:31:29.319Z,10.40
2019-04-20T01:33:41.600Z,10.30
2019-04-20T01:35:52.097Z,10.30
2019-04-20T01:37:57.601Z,10.20
2019-04-20T01:39:48.491Z,10.20
2019-04-20T01:41:47.770Z,10.20
2019-04-20T01:43:52.286Z,10.10
2019-04-20T01:46:01.398Z,10.00
2019-04-20T01:48:03.036Z,9.90
2019-04-20T01:50:15.882Z,9.90
2019-04-20T01:52:20.277Z,9.90
2019-04-20T01:54:38.538Z,9.90
2019-04-20T01:56:37.392Z,9.80
2019-04-20T01:58:58.275Z,9.80
2019-04-20T02:00:53.052Z,9.80
2019-04-20T02:03:01.379Z,9.70
2019-04-20T02:05:08.788Z,9.70
2019-04-20T02:07:10.212Z,9.70
2019-04-20T02:09:19.094Z,9.70
2019-04-20T02:11:26.083Z,9.70
2019-04-20T02:13:33.017Z,9.60
2019-04-20T02:15:38.672Z,9.60
2019-04-20T02:17:43.332Z,9.60
2019-04-20T02:20:06.559Z,9.60
2019-04-20T02:22:03.590Z,9.60
2019-04-20T02:23:58.911Z,9.50
2019-04-20T02:26:09.213Z,9.50
2019-04-20T02:28:27.273Z,9.40
2019-04-20T02:32:55.917Z,9.40
2019-04-20T02:35:01.604Z,9.30
2019-04-20T02:37:26.347Z,9.20
2019-04-20T02:43:49.751Z,9.10
2019-04-20T02:54:16.550Z,9.00
2019-04-20T02:56:13.546Z,9.00
2019-04-20T02:58:15.265Z,9.00
2019-04-20T03:00:17.804Z,9.00
2019-04-20T03:02:14.743Z,9.00
2019-04-20T03:04:06.437Z,8.90
2019-04-20T03:06:19.490Z,8.90
2019-04-20T03:08:29.371Z,8.90
2019-04-20T03:10:48.737Z,8.90
2019-04-20T03:12:45.010Z,8.80
2019-04-20T03:14:42.309Z,8.80
2019-04-20T03:16:50.423Z,8.70
2019-04-20T03:18:55.853Z,8.70
2019-04-20T03:21:08.441Z,8.70
2019-04-20T03:23:26.430Z,8.70
2019-04-20T03:25:41.414Z,8.70
2019-04-20T03:27:38.141Z,8.70
2019-04-20T03:29:47.382Z,8.60
2019-04-20T03:36:25.212Z,8.60
2019-04-20T03:38:19.815Z,8.60
2019-04-20T03:40:21.329Z,8.60
2019-04-20T03:42:14.212Z,8.60
2019-04-20T03:44:23.748Z,8.50
2019-04-20T03:46:34.311Z,8.50
2019-04-20T03:48:46.749Z,8.50
2019-04-20T03:50:57.664Z,8.50
2019-04-20T03:53:08.897Z,8.50
2019-04-20T03:55:10.283Z,8.50
2019-04-20T03:57:21.417Z,8.40
2019-04-20T03:59:39.581Z,8.40
2019-04-20T04:04:14.984Z,8.40
2019-04-20T04:06:23.595Z,8.30
2019-04-20T04:08:27.714Z,8.30
2019-04-20T04:10:34.407Z,8.20
2019-04-20T04:13:07.278Z,8.30
2019-04-20T04:15:12.680Z,8.20
2019-04-20T04:17:21.322Z,8.20
2019-04-20T04:19:28.415Z,8.20
2019-04-20T04:21:44.763Z,8.10
2019-04-20T04:23:48.937Z,8.10
2019-04-20T04:25:58.118Z,8.10
2019-04-20T04:28:02.694Z,8.10
2019-04-20T04:30:06.499Z,8.10
2019-04-20T04:32:23.532Z,8.00
2019-04-20T04:34:17.516Z,8.00
2019-04-20T04:36:21.086Z,8.10
2019-04-20T04:38:35.917Z,8.00
2019-04-20T04:40:44.410Z,8.00
2019-04-20T04:42:42.377Z,8.00
2019-04-20T04:44:42.275Z,8.00
2019-04-20T04:46:33.920Z,8.00
2019-04-20T04:48:42.738Z,8.00
2019-04-20T04:50:50.684Z,8.00
2019-04-20T04:52:58.735Z,7.90
2019-04-20T04:55:06.557Z,7.90
2019-04-20T04:57:01.020Z,7.90
2019-04-20T04:59:04.893Z,7.90
2019-04-20T05:01:14.815Z,7.90
2019-04-20T05:03:33.681Z,7.90
2019-04-20T05:05:49.137Z,8.00
2019-04-20T05:07:51.968Z,8.00
2019-04-20T05:09:46.558Z,8.00
2019-04-20T05:12:02.313Z,8.00
2019-04-20T05:14:02.178Z,8.00
2019-04-20T05:16:17.978Z,8.00
2019-04-20T05:18:35.756Z,8.00
2019-04-20T05:20:38.777Z,8.00
2019-04-20T05:22:48.232Z,8.00
2019-04-20T05:25:01.156Z,8.00
2019-04-20T05:27:03.835Z,8.10
2019-04-20T05:28:59.422Z,8.10
2019-04-20T05:31:00.930Z,8.20
2019-04-20T05:33:08.319Z,8.20
2019-04-20T05:35:28.092Z,8.30
2019-04-20T05:37:54.604Z,8.40
2019-04-20T05:39:38.472Z,8.50
2019-04-20T05:41:44.097Z,8.50
2019-04-20T05:43:59.755Z,8.60
2019-04-20T05:46:08.416Z,8.80
2019-04-20T05:48:09.293Z,8.90
2019-04-20T05:50:15.306Z,9.00
2019-04-20T05:52:35.052Z,9.10
2019-04-20T05:54:37.479Z,9.20
2019-04-20T05:56:43.274Z,9.40
2019-04-20T05:58:47.874Z,9.50
2019-04-20T06:00:57.061Z,9.60
2019-04-20T06:02:56.035Z,9.70
2019-04-20T06:05:05.335Z,9.90
2019-04-20T06:07:09.743Z,10.00
2019-04-20T06:09:29.186Z,10.20
2019-04-20T06:11:16.220Z,10.40
2019-04-20T06:13:22.768Z,10.60
2019-04-20T06:15:40.722Z,10.70
2019-04-20T06:17:58.022Z,10.90
2019-04-20T06:20:12.701Z,11.00
2019-04-20T06:22:28.433Z,11.20
2019-04-20T06:24:42.121Z,11.30
2019-04-20T06:26:56.534Z,11.50
2019-04-20T06:28:48.914Z,11.60
2019-04-20T06:30:52.466Z,11.70
2019-04-20T06:34:00.525Z,11.90
2019-04-20T06:36:07.540Z,12.00
2019-04-20T06:38:03.179Z,12.30
2019-04-20T06:40:29.555Z,12.50
2019-04-20T06:42:13.971Z,12.70
2019-04-20T06:44:16.465Z,12.80
2019-04-20T06:46:18.789Z,13.00
2019-04-20T06:48:31.990Z,13.10
2019-04-20T06:50:24.549Z,13.30
2019-04-20T06:52:32.338Z,13.40
2019-04-20T06:54:53.698Z,13.40
2019-04-20T06:57:05.862Z,13.60
2019-04-20T06:59:14.831Z,13.90
2019-04-20T07:01:10.918Z,14.10
2019-04-20T07:03:40.695Z,14.40
2019-04-20T07:05:27.385Z,14.60
2019-04-20T07:07:33.912Z,14.90
2019-04-20T07:09:46.250Z,15.20
2019-04-20T07:11:43.722Z,15.40
2019-04-20T07:13:39.230Z,15.60
2019-04-20T07:15:53.096Z,15.80
2019-04-20T07:18:24.614Z,16.10
2019-04-20T07:20:12.871Z,16.30
2019-04-20T07:24:40.311Z,16.70
2019-04-20T07:26:41.713Z,16.90
2019-04-20T07:28:48.583Z,17.10
2019-04-20T07:30:50.329Z,17.30
2019-04-20T07:35:03.763Z,17.70
2019-04-20T07:37:41.982Z,17.80
2019-04-20T07:39:18.640Z,18.00
2019-04-20T07:41:29.605Z,18.20
2019-04-20T07:43:28.412Z,18.40
2019-04-20T07:45:43.125Z,18.60
2019-04-20T07:49:41.649Z,18.90
2019-04-20T07:51:35.524Z,19.00
2019-04-20T07:53:52.312Z,19.00
2019-04-20T07:56:09.173Z,19.30
2019-04-20T07:58:02.846Z,19.30
2019-04-20T08:00:13.735Z,19.50
2019-04-20T08:02:32.154Z,19.50
2019-04-20T08:04:42.269Z,19.60
2019-04-20T08:06:41.518Z,19.70
2019-04-20T08:08:53.122Z,19.80
2019-04-20T08:11:02.619Z,20.00
2019-04-20T08:13:17.373Z,20.10
2019-04-20T08:15:22.073Z,20.10
2019-04-20T08:17:40.437Z,20.30
2019-04-20T08:19:35.632Z,20.40
2019-04-20T08:21:44.054Z,20.70
2019-04-20T08:23:52.139Z,20.80
2019-04-20T08:25:47.092Z,20.90
2019-04-20T08:27:57.074Z,21.10
2019-04-20T08:30:23.959Z,21.20
2019-04-20T08:32:42.930Z,21.20
2019-04-20T08:34:53.742Z,21.30
2019-04-20T08:36:56.653Z,21.50
2019-04-20T08:41:07.284Z,21.60
2019-04-20T08:45:23.605Z,21.90
2019-04-20T08:47:35.116Z,22.10
2019-04-20T08:49:37.286Z,22.00
2019-04-20T08:51:41.901Z,21.80
2019-04-20T08:53:41.807Z,21.70
2019-04-20T08:55:43.823Z,21.70
2019-04-20T08:57:33.666Z,21.70
2019-04-20T08:59:40.296Z,21.80
2019-04-20T09:01:44.489Z,21.90
2019-04-20T09:03:58.841Z,22.00
2019-04-20T09:06:04.919Z,22.00
2019-04-20T09:08:12.293Z,22.10
2019-04-20T09:12:32.148Z,22.20
2019-04-20T09:14:21.349Z,22.00
2019-04-20T09:16:32.401Z,21.90
2019-04-20T09:18:51.450Z,22.00
2019-04-20T09:20:56.029Z,22.10
2019-04-20T09:23:13.538Z,22.20
2019-04-20T09:25:43.074Z,22.10
2019-04-20T09:27:18.375Z,22.10
2019-04-20T09:29:27.288Z,22.20
2019-04-20T09:31:40.528Z,22.30
2019-04-20T09:33:51.690Z,22.40
2019-04-20T09:35:55.955Z,22.40
2019-04-20T09:38:09.113Z,22.40
2019-04-20T09:40:32.092Z,22.60
2019-04-20T09:42:19.897Z,22.60
2019-04-20T09:44:30.182Z,22.50
2019-04-20T09:46:30.875Z,22.50
2019-04-20T09:48:43.499Z,22.70
2019-04-20T09:51:08.143Z,22.90
2019-04-20T09:53:06.303Z,23.00
2019-04-20T09:55:10.798Z,22.90
2019-04-20T09:57:22.608Z,22.80
2019-04-20T09:59:26.679Z,22.80
2019-04-20T10:01:22.757Z,22.90
2019-04-20T10:03:16.929Z,22.90
2019-04-20T10:05:20.847Z,22.90
2019-04-20T10:07:28.689Z,23.00
2019-04-20T10:09:34.452Z,23.30
2019-04-20T10:11:35.477Z,23.30
2019-04-20T10:13:40.399Z,23.30
2019-04-20T10:15:44.273Z,23.40
2019-04-20T10:17:47.955Z,23.50
2019-04-20T10:19:51.691Z,23.40
2019-04-20T10:21:56.888Z,23.40
2019-04-20T10:24:00.895Z,23.50
2019-04-20T10:26:04.769Z,23.50
2019-04-20T10:28:09.446Z,23.50
2019-04-20T10:30:14.588Z,23.60
2019-04-20T10:32:19.729Z,23.80
2019-04-20T10:34:24.181Z,23.80
2019-04-20T10:36:39.345Z,23.80
2019-04-20T10:38:44.364Z,23.90
2019-04-20T10:40:59.730Z,23.90
2019-04-20T10:42:54.951Z,23.90
2019-04-20T10:45:01.145Z,23.90
2019-04-20T10:47:05.312Z,24.00
2019-04-20T10:49:09.663Z,24.00
2019-04-20T10:51:14.057Z,23.80
2019-04-20T10:53:18.055Z,23.80
2019-04-20T10:55:22.588Z,23.90
2019-04-20T10:57:37.908Z,24.00
2019-04-20T10:59:43.866Z,24.20
2019-04-20T11:01:47.779Z,24.20
2019-04-20T11:03:52.336Z,24.40
2019-04-20T11:06:06.826Z,24.30
2019-04-20T11:08:12.772Z,24.30
2019-04-20T11:10:22.853Z,24.30
2019-04-20T11:12:22.468Z,24.20
2019-04-20T11:14:31.392Z,24.10
2019-04-20T11:16:32.725Z,24.10
2019-04-20T11:18:37.691Z,24.00
2019-04-20T11:20:41.651Z,24.10
2019-04-20T11:22:46.360Z,24.20
2019-04-20T11:24:50.314Z,24.20
2019-04-20T11:26:54.237Z,24.20
2019-04-20T11:28:58.326Z,24.20
2019-04-20T11:31:02.056Z,24.30
2019-04-20T11:33:06.411Z,24.20
2019-04-20T11:35:19.997Z,24.20
2019-04-20T11:37:17.138Z,24.30
2019-04-20T11:39:21.111Z,24.50
2019-04-20T11:41:27.658Z,24.40
2019-04-20T11:43:31.505Z,24.40
2019-04-20T11:45:36.392Z,24.40
2019-04-20T11:47:43.241Z,24.20
2019-04-20T11:49:47.307Z,24.30
2019-04-20T11:51:51.854Z,24.40
2019-04-20T11:53:56.464Z,24.40
2019-04-20T11:56:00.634Z,24.50
2019-04-20T11:58:05.791Z,24.60
2019-04-20T12:00:13.136Z,24.90
2019-04-20T12:02:29.448Z,25.00
2019-04-20T12:04:44.223Z,24.90
2019-04-20T12:06:46.508Z,24.70
2019-04-20T12:08:50.839Z,24.60
2019-04-20T12:10:59.611Z,24.50
2019-04-20T12:13:01.787Z,24.50
2019-04-20T12:15:06.624Z,24.70
2019-04-20T12:17:11.504Z,24.80
2019-04-20T12:19:15.351Z,24.80
2019-04-20T12:21:19.012Z,24.80
2019-04-20T12:23:22.768Z,25.00
2019-04-20T12:25:28.057Z,25.00
2019-04-20T12:27:32.511Z,24.90
2019-04-20T12:29:36.256Z,25.00
2019-04-20T12:31:39.864Z,25.10
2019-04-20T12:33:44.325Z,25.00
2019-04-20T12:35:48.130Z,24.70
2019-04-20T12:37:51.931Z,24.70
2019-04-20T12:39:55.677Z,24.80
2019-04-20T12:42:03.889Z,24.80
2019-04-20T12:44:05.842Z,24.70
2019-04-20T12:46:09.798Z,24.70
2019-04-20T12:48:13.888Z,24.70
2019-04-20T12:50:19.387Z,24.60
2019-04-20T12:52:23.093Z,24.50
2019-04-20T12:54:26.991Z,24.60
2019-04-20T12:56:30.829Z,24.80
2019-04-20T12:58:34.691Z,24.80
2019-04-20T13:00:45.750Z,24.80
2019-04-20T13:02:51.560Z,24.80
2019-04-20T13:04:55.381Z,25.10
2019-04-20T13:06:59.827Z,25.20
2019-04-20T13:09:08.304Z,25.20
2019-04-20T13:11:16.646Z,25.40
2019-04-20T13:13:32.398Z,25.60
2019-04-20T13:15:44.543Z,25.60
2019-04-20T13:17:51.086Z,25.60
2019-04-20T13:19:53.842Z,25.60
2019-04-20T13:21:58.867Z,25.60
2019-04-20T13:24:03.274Z,25.50
2019-04-20T13:26:08.759Z,25.40
2019-04-20T13:28:12.907Z,25.30
2019-04-20T13:30:17.249Z,25.40
2019-04-20T13:32:20.911Z,25.50
2019-04-20T13:34:24.882Z,25.50
2019-04-20T13:36:28.647Z,25.50
2019-04-20T13:38:32.484Z,25.40
2019-04-20T13:40:36.121Z,25.60
2019-04-20T13:42:39.820Z,25.50
2019-04-20T13:44:45.155Z,25.50
2019-04-20T13:46:49.242Z,25.70
2019-04-20T13:48:53.202Z,25.90
2019-04-20T13:50:58.261Z,25.90
2019-04-20T13:53:03.262Z,25.70
2019-04-20T13:55:08.698Z,25.50
2019-04-20T13:57:17.519Z,25.60
2019-04-20T13:59:32.071Z,25.60
2019-04-20T14:01:57.051Z,25.90
2019-04-20T14:04:12.664Z,25.90
2019-04-20T14:06:16.699Z,25.90
2019-04-20T14:08:23.473Z,25.70
2019-04-20T14:10:27.329Z,25.70
2019-04-20T14:12:37.177Z,25.90
2019-04-20T14:14:37.200Z,25.80
2019-04-20T14:16:41.212Z,25.80
2019-04-20T14:18:49.208Z,25.80
2019-04-20T14:20:56.358Z,25.80
2019-04-20T14:23:01.014Z,25.90
2019-04-20T14:25:06.933Z,26.00
2019-04-20T14:27:10.894Z,25.90
2019-04-20T14:29:14.869Z,25.80
2019-04-20T14:31:19.571Z,25.70
2019-04-20T14:33:24.235Z,25.60
2019-04-20T14:35:29.197Z,25.60
2019-04-20T14:37:33.121Z,25.60
2019-04-20T14:39:38.267Z,25.70
2019-04-20T14:41:42.362Z,25.80
2019-04-20T14:43:46.968Z,25.60
2019-04-20T14:45:50.630Z,25.60
2019-04-20T14:47:54.344Z,25.40
2019-04-20T14:50:01.024Z,25.30
2019-04-20T14:52:04.865Z,25.10
2019-04-20T14:54:09.933Z,25.10
2019-04-20T14:56:13.756Z,25.40
2019-04-20T14:58:38.359Z,25.60
2019-04-20T15:00:54.945Z,25.60
2019-04-20T15:03:01.794Z,25.50
2019-04-20T15:05:07.409Z,25.30
2019-04-20T15:07:11.294Z,25.50
2019-04-20T15:09:16.923Z,25.30
2019-04-20T15:11:23.035Z,25.20
2019-04-20T15:13:27.107Z,25.20
2019-04-20T15:15:30.984Z,25.20
2019-04-20T15:17:53.514Z,25.30
2019-04-20T15:19:59.242Z,25.40
2019-04-20T15:22:05.488Z,25.30
2019-04-20T15:24:09.459Z,25.10
2019-04-20T15:26:13.219Z,25.10
2019-04-20T15:28:18.549Z,25.30
2019-04-20T15:30:22.479Z,25.20
2019-04-20T15:32:27.096Z,25.10
2019-04-20T15:34:31.008Z,25.00
2019-04-20T15:36:35.998Z,24.80
2019-04-20T15:38:40.897Z,24.80
2019-04-20T15:40:44.931Z,24.70
2019-04-20T15:42:58.011Z,24.70
2019-04-20T15:44:55.474Z,24.80
2019-04-20T15:46:59.470Z,24.90
2019-04-20T15:49:04.090Z,24.90
2019-04-20T15:51:08.099Z,25.00
2019-04-20T15:53:13.405Z,25.00
2019-04-20T15:55:24.170Z,24.90
2019-04-20T15:57:25.738Z,24.80
2019-04-20T15:59:28.523Z,24.70
2019-04-20T16:01:34.368Z,24.80
2019-04-20T16:03:57.147Z,24.90
2019-04-20T16:06:05.538Z,24.90
2019-04-20T16:08:21.373Z,24.70
2019-04-20T16:10:28.405Z,24.40
2019-04-20T16:12:33.083Z,24.20
2019-04-20T16:14:37.641Z,24.30
2019-04-20T16:16:42.473Z,24.10
2019-04-20T16:18:46.732Z,24.20
2019-04-20T16:21:00.448Z,24.20
2019-04-20T16:22:56.553Z,24.20
2019-04-20T16:25:19.211Z,24.10
2019-04-20T16:27:33.448Z,24.10
2019-04-20T16:29:37.851Z,24.10
2019-04-20T16:31:44.091Z,24.10
2019-04-20T16:33:47.444Z,24.10
2019-04-20T16:35:52.684Z,24.10
2019-04-20T16:37:58.197Z,24.00
2019-04-20T16:40:06.022Z,23.90
2019-04-20T16:42:11.954Z,23.80
2019-04-20T16:44:15.825Z,23.60
2019-04-20T16:46:23.518Z,23.60
2019-04-20T16:48:26.231Z,23.50
2019-04-20T16:50:31.110Z,23.40
2019-04-20T16:52:36.766Z,23.30
2019-04-20T16:54:41.726Z,23.20
2019-04-20T16:56:46.630Z,23.10
2019-04-20T16:58:57.328Z,23.00
2019-04-20T17:00:56.225Z,22.90
2019-04-20T17:03:00.420Z,22.80
2019-04-20T17:05:05.202Z,22.80
2019-04-20T17:07:16.770Z,22.80
2019-04-20T17:09:21.898Z,22.70
2019-04-20T17:11:25.740Z,22.70
2019-04-20T17:13:38.000Z,22.60
2019-04-20T17:15:34.853Z,22.60
2019-04-20T17:17:39.851Z,22.50
2019-04-20T17:19:43.997Z,22.50
2019-04-20T17:21:48.672Z,22.40
2019-04-20T17:23:53.236Z,22.40
2019-04-20T17:25:57.910Z,22.40
2019-04-20T17:28:20.719Z,22.40
2019-04-20T17:30:44.483Z,22.40
2019-04-20T17:32:49.532Z,22.20
2019-04-20T17:35:11.655Z,22.10
2019-04-20T17:36:59.271Z,22.10
2019-04-20T17:39:10.209Z,22.00
2019-04-20T17:41:32.378Z,21.90
2019-04-20T17:43:25.418Z,21.80
2019-04-20T17:45:33.413Z,21.80
2019-04-20T17:47:47.166Z,21.70
2019-04-20T17:49:51.582Z,21.60
2019-04-20T17:51:59.186Z,21.60
2019-04-20T17:53:54.581Z,21.50
2019-04-20T17:55:54.843Z,21.40
2019-04-20T17:57:59.408Z,21.40
2019-04-20T18:00:12.068Z,21.30
2019-04-20T18:02:45.921Z,21.30
2019-04-20T18:05:00.946Z,21.20
2019-04-20T18:06:54.905Z,21.20
2019-04-20T18:09:00.948Z,21.10
2019-04-20T18:11:03.741Z,21.10
2019-04-20T18:13:09.433Z,21.00
2019-04-20T18:15:27.583Z,21.00
2019-04-20T18:17:30.566Z,20.90
2019-04-20T18:19:25.705Z,20.90
2019-04-20T18:21:41.660Z,20.80
2019-04-20T18:23:48.588Z,20.80
2019-04-20T18:26:14.929Z,20.70
2019-04-20T18:28:11.086Z,20.60
2019-04-20T18:30:23.055Z,20.60
2019-04-20T18:32:19.750Z,20.50
2019-04-20T18:34:29.303Z,20.50
2019-04-20T18:36:38.257Z,20.40
2019-04-20T18:38:48.034Z,20.40
2019-04-20T18:40:54.716Z,20.40
2019-04-20T18:42:55.898Z,20.30
2019-04-20T18:45:18.436Z,20.20
2019-04-20T18:47:25.658Z,20.20
2019-04-20T18:49:18.170Z,20.10
2019-04-20T18:51:12.043Z,20.00
2019-04-20T18:53:26.499Z,20.00
2019-04-20T18:55:30.283Z,19.90
2019-04-20T18:57:30.720Z,19.90
2019-04-20T18:59:41.788Z,19.80
2019-04-20T19:01:40.102Z,19.80
2019-04-20T19:03:45.528Z,19.70
2019-04-20T19:05:49.546Z,19.70
2019-04-20T19:08:00.936Z,19.60
2019-04-20T19:10:08.322Z,19.60
2019-04-20T19:12:08.100Z,19.50
2019-04-20T19:14:22.085Z,19.40
2019-04-20T19:16:38.177Z,19.40
2019-04-20T19:18:54.833Z,19.40
2019-04-20T19:20:55.077Z,19.30
2019-04-20T19:23:00.033Z,19.20
2019-04-20T19:25:12.280Z,19.10
2019-04-20T19:27:15.727Z,19.10
2019-04-20T19:29:28.585Z,19.00
2019-04-20T19:31:42.525Z,18.90
2019-04-20T19:33:46.418Z,18.80
2019-04-20T19:35:46.627Z,18.70
2019-04-20T19:37:56.206Z,18.60
2019-04-20T19:40:02.880Z,18.50
2019-04-20T19:42:07.891Z,18.40
2019-04-20T19:44:09.973Z,18.30
2019-04-20T19:46:39.345Z,18.20
2019-04-20T19:48:24.099Z,18.10
2019-04-20T19:52:43.341Z,18.00
2019-04-20T19:54:46.792Z,17.90
2019-04-20T19:56:52.414Z,17.90
2019-04-20T19:58:53.332Z,17.90
2019-04-20T20:00:53.548Z,17.90
2019-04-20T20:02:57.409Z,17.80
2019-04-20T20:08:03.872Z,17.70
2019-04-20T20:10:05.230Z,17.60
2019-04-20T20:12:12.328Z,17.60
2019-04-20T20:14:13.295Z,17.40
2019-04-20T20:16:27.103Z,17.30
2019-04-20T20:18:39.269Z,17.20
2019-04-20T20:20:52.444Z,17.20
2019-04-20T20:22:43.009Z,17.00
2019-04-20T20:24:43.090Z,17.00
2019-04-20T20:26:53.435Z,17.00
2019-04-20T20:29:07.291Z,16.90
2019-04-20T20:31:08.119Z,16.90
2019-04-20T20:33:24.205Z,16.90
2019-04-20T20:35:20.482Z,16.80
2019-04-20T20:37:24.219Z,16.70
2019-04-20T20:39:27.662Z,16.60
2019-04-20T20:41:33.162Z,16.60
2019-04-20T20:43:45.804Z,16.60
2019-04-20T20:45:48.759Z,16.50
2019-04-20T20:48:07.794Z,16.50
2019-04-20T20:50:13.039Z,16.50
2019-04-20T20:52:14.460Z,16.40
2019-04-20T20:54:09.879Z,16.30
2019-04-20T20:56:18.216Z,16.20
2019-04-20T20:58:21.206Z,16.30
2019-04-20T21:00:35.934Z,16.20
2019-04-20T21:02:41.423Z,16.20
2019-04-20T21:04:33.491Z,16.20
2019-04-20T21:06:37.822Z,16.10
2019-04-20T21:08:45.866Z,16.10
2019-04-20T21:10:48.063Z,16.00
2019-04-20T21:12:56.464Z,16.00
2019-04-20T21:15:00.396Z,16.00
2019-04-20T21:17:12.240Z,15.90
2019-04-20T21:19:24.422Z,15.90
2019-04-20T21:21:31.397Z,15.70
2019-04-20T21:23:32.816Z,15.70
2019-04-20T21:25:33.590Z,15.60
2019-04-20T21:27:32.806Z,15.60
2019-04-20T21:29:43.481Z,15.60
2019-04-20T21:31:52.175Z,15.50
2019-04-20T21:33:48.946Z,15.50
2019-04-20T21:35:53.846Z,15.40
2019-04-20T21:38:05.742Z,15.40
2019-04-20T21:40:19.598Z,15.30
2019-04-20T21:42:16.482Z,15.30
2019-04-20T21:44:24.733Z,15.30
2019-04-20T21:46:22.882Z,15.20
2019-04-20T21:48:43.928Z,15.20
2019-04-20T21:50:56.054Z,15.20
2019-04-20T21:52:42.983Z,15.10
2019-04-20T21:54:43.092Z,15.10
2019-04-20T21:56:55.020Z,15.00
2019-04-20T21:58:57.474Z,15.00
2019-04-20T22:01:09.607Z,14.90
2019-04-20T22:03:07.806Z,14.90
2019-04-20T22:05:11.424Z,14.90
2019-04-20T22:07:16.484Z,14.80
2019-04-20T22:09:20.436Z,14.80
2019-04-20T22:11:24.354Z,14.70
2019-04-20T22:13:35.546Z,14.60
2019-04-20T22:15:35.371Z,14.50
2019-04-20T22:17:39.831Z,14.50
2019-04-20T22:19:59.027Z,14.40
2019-04-20T22:22:00.541Z,14.40
2019-04-20T22:24:10.541Z,14.40
2019-04-20T22:26:11.971Z,14.30
2019-04-20T22:28:07.032Z,14.30
2019-04-20T22:30:12.272Z,14.20
2019-04-20T22:32:17.315Z,14.10
2019-04-20T22:34:24.686Z,14.10
2019-04-20T22:36:34.071Z,14.00
2019-04-20T22:38:39.731Z,14.00
2019-04-20T22:40:42.887Z,13.90
2019-04-20T22:42:51.668Z,13.80
2019-04-20T22:44:56.612Z,13.80
2019-04-20T22:46:58.732Z,13.70
2019-04-20T22:49:20.893Z,13.70
2019-04-20T22:51:28.108Z,13.70
2019-04-20T22:53:27.101Z,13.60
2019-04-20T22:55:45.489Z,13.70
2019-04-20T22:57:36.076Z,13.60
2019-04-20T22:59:38.319Z,13.60
2019-04-20T23:01:44.357Z,13.50
2019-04-20T23:03:41.104Z,13.50
2019-04-20T23:05:45.083Z,13.50
2019-04-20T23:07:48.757Z,13.40
2019-04-20T23:09:56.687Z,13.40
2019-04-20T23:12:03.604Z,13.40
2019-04-20T23:14:04.580Z,13.30
2019-04-20T23:16:09.259Z,13.30
2019-04-20T23:18:13.959Z,13.30
2019-04-20T23:20:25.348Z,13.20
2019-04-20T23:22:33.979Z,13.10
2019-04-20T23:24:29.511Z,13.10
2019-04-20T23:26:36.886Z,13.10
2019-04-20T23:28:40.062Z,13.00
2019-04-20T23:30:45.645Z,12.90
2019-04-20T23:32:49.820Z,12.90
2019-04-20T23:35:00.483Z,12.90
2019-04-20T23:37:00.708Z,12.90
2019-04-20T23:39:06.559Z,12.80
2019-04-20T23:41:10.539Z,12.80
2019-04-20T23:43:24.533Z,12.80
2019-04-20T23:45:38.755Z,12.80
2019-04-20T23:47:54.155Z,12.80
2019-04-20T23:50:13.784Z,12.70
2019-04-20T23:52:32.307Z,12.70
2019-04-20T23:54:13.859Z,12.70
2019-04-20T23:56:18.416Z,12.60
2019-04-20T23:58:20.822Z,12.60
